sensor_id;sensor_type;location;lat;lon;timestamp;P1;durP1;ratioP1;P2;durP2;ratioP2
68310;SDS011;55157;51.036;17.058;2023-03-31T00:02:16;8.05;;;3.90;;
68310;SDS011;55157;51.036;17.058;2023-03-31T00:04:43;12.80;;;4.97;;
68310;SDS011;55157;51.036;17.058;2023-03-31T00:07:08;7.50;;;3.65;;
68310;SDS011;55157;51.036;17.058;2023-03-31T00:09:33;10.40;;;4.75;;
68310;SDS011;55157;51.036;17.058;2023-03-31T00:11:59;10.43;;;4.35;;
68310;SDS011;55157;51.036;17.058;2023-03-31T00:14:24;7.55;;;4.18;;
68310;SDS011;55157;51.036;17.058;2023-03-31T00:16:50;12.38;;;4.50;;
68310;SDS011;55157;51.036;17.058;2023-03-31T00:19:15;10.80;;;3.95;;
68310;SDS011;55157;51.036;17.058;2023-03-31T00:21:42;8.43;;;4.55;;
68310;SDS011;55157;51.036;17.058;2023-03-31T00:24:08;10.85;;;4.70;;
68310;SDS011;55157;51.036;17.058;2023-03-31T00:26:34;7.47;;;4.53;;
68310;SDS011;55157;51.036;17.058;2023-03-31T00:29:00;11.80;;;5.07;;
68310;SDS011;55157;51.036;17.058;2023-03-31T00:31:25;10.35;;;4.65;;
68310;SDS011;55157;51.036;17.058;2023-03-31T00:33:51;9.30;;;4.53;;
68310;SDS011;55157;51.036;17.058;2023-03-31T00:36:16;11.88;;;4.13;;
68310;SDS011;55157;51.036;17.058;2023-03-31T00:38:43;10.00;;;3.97;;
68310;SDS011;55157;51.036;17.058;2023-03-31T00:41:09;9.90;;;4.63;;
68310;SDS011;55157;51.036;17.058;2023-03-31T00:43:35;8.57;;;4.18;;
68310;SDS011;55157;51.036;17.058;2023-03-31T00:46:04;8.40;;;3.88;;
68310;SDS011;55157;51.036;17.058;2023-03-31T00:48:30;11.05;;;4.05;;
68310;SDS011;55157;51.036;17.058;2023-03-31T00:50:56;9.65;;;4.18;;
68310;SDS011;55157;51.036;17.058;2023-03-31T00:53:24;11.73;;;3.83;;
68310;SDS011;55157;51.036;17.058;2023-03-31T00:55:53;7.30;;;3.95;;
68310;SDS011;55157;51.036;17.058;2023-03-31T00:58:19;11.20;;;4.65;;
68310;SDS011;55157;51.036;17.058;2023-03-31T01:00:45;8.82;;;3.45;;
68310;SDS011;55157;51.036;17.058;2023-03-31T01:03:10;11.32;;;4.13;;
68310;SDS011;55157;51.036;17.058;2023-03-31T01:05:37;10.07;;;3.95;;
68310;SDS011;55157;51.036;17.058;2023-03-31T01:08:05;9.43;;;3.70;;
68310;SDS011;55157;51.036;17.058;2023-03-31T01:10:32;12.52;;;5.05;;
68310;SDS011;55157;51.036;17.058;2023-03-31T01:12:59;6.75;;;4.32;;
68310;SDS011;55157;51.036;17.058;2023-03-31T01:15:25;9.18;;;4.47;;
68310;SDS011;55157;51.036;17.058;2023-03-31T01:17:50;12.15;;;4.30;;
68310;SDS011;55157;51.036;17.058;2023-03-31T01:20:18;9.68;;;4.25;;
68310;SDS011;55157;51.036;17.058;2023-03-31T01:23:03;12.85;;;4.35;;
68310;SDS011;55157;51.036;17.058;2023-03-31T01:28:22;6.93;;;4.07;;
68310;SDS011;55157;51.036;17.058;2023-03-31T01:31:05;8.38;;;4.15;;
68310;SDS011;55157;51.036;17.058;2023-03-31T01:33:39;8.48;;;3.80;;
68310;SDS011;55157;51.036;17.058;2023-03-31T01:41:38;7.90;;;3.97;;
68310;SDS011;55157;51.036;17.058;2023-03-31T01:44:07;12.38;;;4.10;;
68310;SDS011;55157;51.036;17.058;2023-03-31T01:46:35;9.27;;;4.30;;
68310;SDS011;55157;51.036;17.058;2023-03-31T01:49:06;10.55;;;3.80;;
68310;SDS011;55157;51.036;17.058;2023-03-31T01:51:34;8.63;;;4.65;;
68310;SDS011;55157;51.036;17.058;2023-03-31T01:54:03;8.68;;;4.55;;
68310;SDS011;55157;51.036;17.058;2023-03-31T01:56:31;6.63;;;4.13;;
68310;SDS011;55157;51.036;17.058;2023-03-31T01:58:59;9.85;;;3.75;;
68310;SDS011;55157;51.036;17.058;2023-03-31T02:01:27;7.78;;;3.92;;
68310;SDS011;55157;51.036;17.058;2023-03-31T02:03:54;5.85;;;3.75;;
68310;SDS011;55157;51.036;17.058;2023-03-31T02:06:21;8.95;;;4.93;;
68310;SDS011;55157;51.036;17.058;2023-03-31T02:08:48;9.93;;;4.60;;
68310;SDS011;55157;51.036;17.058;2023-03-31T02:11:15;6.75;;;3.83;;
68310;SDS011;55157;51.036;17.058;2023-03-31T02:13:42;5.63;;;4.13;;
68310;SDS011;55157;51.036;17.058;2023-03-31T02:16:11;11.10;;;4.53;;
68310;SDS011;55157;51.036;17.058;2023-03-31T02:18:37;7.72;;;4.95;;
68310;SDS011;55157;51.036;17.058;2023-03-31T02:21:04;9.27;;;4.93;;
68310;SDS011;55157;51.036;17.058;2023-03-31T02:23:30;13.75;;;6.38;;
68310;SDS011;55157;51.036;17.058;2023-03-31T02:25:58;11.13;;;6.80;;
68310;SDS011;55157;51.036;17.058;2023-03-31T02:28:25;10.85;;;6.65;;
68310;SDS011;55157;51.036;17.058;2023-03-31T02:30:53;8.85;;;5.07;;
68310;SDS011;55157;51.036;17.058;2023-03-31T02:33:23;12.23;;;6.47;;
68310;SDS011;55157;51.036;17.058;2023-03-31T02:35:48;10.60;;;6.88;;
68310;SDS011;55157;51.036;17.058;2023-03-31T02:38:14;12.65;;;7.13;;
68310;SDS011;55157;51.036;17.058;2023-03-31T02:40:39;15.15;;;6.93;;
68310;SDS011;55157;51.036;17.058;2023-03-31T02:43:04;14.48;;;6.78;;
68310;SDS011;55157;51.036;17.058;2023-03-31T02:45:37;12.48;;;6.88;;
68310;SDS011;55157;51.036;17.058;2023-03-31T02:48:02;11.85;;;5.75;;
68310;SDS011;55157;51.036;17.058;2023-03-31T02:50:30;14.32;;;7.03;;
68310;SDS011;55157;51.036;17.058;2023-03-31T02:52:59;11.55;;;7.00;;
68310;SDS011;55157;51.036;17.058;2023-03-31T02:55:30;9.23;;;6.78;;
68310;SDS011;55157;51.036;17.058;2023-03-31T03:00:51;10.93;;;6.95;;
68310;SDS011;55157;51.036;17.058;2023-03-31T03:03:22;11.80;;;7.93;;
68310;SDS011;55157;51.036;17.058;2023-03-31T03:05:56;8.93;;;7.32;;
68310;SDS011;55157;51.036;17.058;2023-03-31T03:08:25;14.07;;;8.48;;
68310;SDS011;55157;51.036;17.058;2023-03-31T03:10:55;12.85;;;8.43;;
68310;SDS011;55157;51.036;17.058;2023-03-31T03:13:23;14.88;;;7.82;;
68310;SDS011;55157;51.036;17.058;2023-03-31T03:15:53;13.45;;;9.80;;
68310;SDS011;55157;51.036;17.058;2023-03-31T03:18:20;15.63;;;6.93;;
68310;SDS011;55157;51.036;17.058;2023-03-31T03:20:45;12.68;;;6.75;;
68310;SDS011;55157;51.036;17.058;2023-03-31T03:23:12;10.77;;;8.13;;
68310;SDS011;55157;51.036;17.058;2023-03-31T03:25:37;13.45;;;7.55;;
68310;SDS011;55157;51.036;17.058;2023-03-31T03:28:02;11.57;;;7.78;;
68310;SDS011;55157;51.036;17.058;2023-03-31T03:30:28;14.70;;;7.68;;
68310;SDS011;55157;51.036;17.058;2023-03-31T03:32:53;11.20;;;7.63;;
68310;SDS011;55157;51.036;17.058;2023-03-31T03:35:18;12.23;;;7.63;;
68310;SDS011;55157;51.036;17.058;2023-03-31T03:37:43;11.32;;;7.65;;
68310;SDS011;55157;51.036;17.058;2023-03-31T03:40:10;10.77;;;7.47;;
68310;SDS011;55157;51.036;17.058;2023-03-31T03:42:36;13.10;;;7.72;;
68310;SDS011;55157;51.036;17.058;2023-03-31T03:45:01;12.02;;;7.07;;
68310;SDS011;55157;51.036;17.058;2023-03-31T03:47:26;9.48;;;6.57;;
68310;SDS011;55157;51.036;17.058;2023-03-31T03:49:52;10.30;;;7.28;;
68310;SDS011;55157;51.036;17.058;2023-03-31T03:52:17;13.90;;;8.73;;
68310;SDS011;55157;51.036;17.058;2023-03-31T03:54:42;14.48;;;6.97;;
68310;SDS011;55157;51.036;17.058;2023-03-31T03:57:09;11.77;;;6.25;;
68310;SDS011;55157;51.036;17.058;2023-03-31T03:59:34;14.23;;;8.50;;
68310;SDS011;55157;51.036;17.058;2023-03-31T04:02:00;11.68;;;6.55;;
68310;SDS011;55157;51.036;17.058;2023-03-31T04:04:25;12.80;;;8.23;;
68310;SDS011;55157;51.036;17.058;2023-03-31T04:06:51;16.02;;;10.10;;
68310;SDS011;55157;51.036;17.058;2023-03-31T04:09:16;13.02;;;8.77;;
68310;SDS011;55157;51.036;17.058;2023-03-31T04:11:41;212.27;;;120.03;;
68310;SDS011;55157;51.036;17.058;2023-03-31T04:14:08;323.55;;;183.75;;
68310;SDS011;55157;51.036;17.058;2023-03-31T04:16:33;400.27;;;230.45;;
68310;SDS011;55157;51.036;17.058;2023-03-31T04:18:58;409.80;;;230.25;;
68310;SDS011;55157;51.036;17.058;2023-03-31T04:21:24;262.50;;;143.13;;
68310;SDS011;55157;51.036;17.058;2023-03-31T04:23:52;219.93;;;110.07;;
68310;SDS011;55157;51.036;17.058;2023-03-31T04:26:17;238.38;;;76.28;;
68310;SDS011;55157;51.036;17.058;2023-03-31T04:28:43;287.48;;;79.43;;
68310;SDS011;55157;51.036;17.058;2023-03-31T04:31:09;101.05;;;30.95;;
68310;SDS011;55157;51.036;17.058;2023-03-31T04:33:35;109.47;;;31.67;;
68310;SDS011;55157;51.036;17.058;2023-03-31T04:36:00;129.50;;;38.53;;
68310;SDS011;55157;51.036;17.058;2023-03-31T04:38:25;146.05;;;44.00;;
68310;SDS011;55157;51.036;17.058;2023-03-31T04:40:51;156.60;;;45.65;;
68310;SDS011;55157;51.036;17.058;2023-03-31T04:43:17;132.30;;;40.75;;
68310;SDS011;55157;51.036;17.058;2023-03-31T04:45:42;108.68;;;36.70;;
68310;SDS011;55157;51.036;17.058;2023-03-31T04:48:09;64.93;;;24.75;;
68310;SDS011;55157;51.036;17.058;2023-03-31T04:50:35;59.00;;;19.35;;
68310;SDS011;55157;51.036;17.058;2023-03-31T04:53:00;22.40;;;9.80;;
68310;SDS011;55157;51.036;17.058;2023-03-31T04:55:25;24.80;;;11.23;;
68310;SDS011;55157;51.036;17.058;2023-03-31T04:57:51;66.40;;;22.85;;
68310;SDS011;55157;51.036;17.058;2023-03-31T05:00:16;37.05;;;14.68;;
68310;SDS011;55157;51.036;17.058;2023-03-31T05:02:42;83.78;;;27.10;;
68310;SDS011;55157;51.036;17.058;2023-03-31T05:05:09;100.18;;;30.52;;
68310;SDS011;55157;51.036;17.058;2023-03-31T05:07:34;60.65;;;23.17;;
68310;SDS011;55157;51.036;17.058;2023-03-31T05:09:59;57.20;;;22.15;;
68310;SDS011;55157;51.036;17.058;2023-03-31T05:12:24;45.67;;;20.25;;
68310;SDS011;55157;51.036;17.058;2023-03-31T05:14:50;67.88;;;37.13;;
68310;SDS011;55157;51.036;17.058;2023-03-31T05:17:15;61.50;;;35.70;;
68310;SDS011;55157;51.036;17.058;2023-03-31T05:19:40;60.75;;;32.17;;
68310;SDS011;55157;51.036;17.058;2023-03-31T05:22:07;55.00;;;22.60;;
68310;SDS011;55157;51.036;17.058;2023-03-31T05:24:32;49.85;;;19.33;;
68310;SDS011;55157;51.036;17.058;2023-03-31T05:26:58;56.75;;;26.27;;
68310;SDS011;55157;51.036;17.058;2023-03-31T05:29:23;53.95;;;24.33;;
68310;SDS011;55157;51.036;17.058;2023-03-31T05:31:48;46.65;;;21.38;;
68310;SDS011;55157;51.036;17.058;2023-03-31T05:34:14;60.05;;;23.05;;
68310;SDS011;55157;51.036;17.058;2023-03-31T05:36:39;57.95;;;21.48;;
68310;SDS011;55157;51.036;17.058;2023-03-31T05:39:06;38.25;;;17.70;;
68310;SDS011;55157;51.036;17.058;2023-03-31T05:41:31;38.25;;;17.40;;
68310;SDS011;55157;51.036;17.058;2023-03-31T05:43:58;25.08;;;11.98;;
68310;SDS011;55157;51.036;17.058;2023-03-31T05:46:23;36.47;;;15.90;;
68310;SDS011;55157;51.036;17.058;2023-03-31T05:48:48;31.27;;;14.10;;
68310;SDS011;55157;51.036;17.058;2023-03-31T05:51:14;21.75;;;13.20;;
68310;SDS011;55157;51.036;17.058;2023-03-31T05:53:39;25.90;;;14.40;;
68310;SDS011;55157;51.036;17.058;2023-03-31T05:56:06;23.42;;;11.65;;
68310;SDS011;55157;51.036;17.058;2023-03-31T05:58:32;13.80;;;8.57;;
68310;SDS011;55157;51.036;17.058;2023-03-31T06:01:01;26.63;;;11.82;;
68310;SDS011;55157;51.036;17.058;2023-03-31T06:03:27;20.40;;;11.18;;
68310;SDS011;55157;51.036;17.058;2023-03-31T06:05:52;19.70;;;10.95;;
68310;SDS011;55157;51.036;17.058;2023-03-31T06:08:18;29.55;;;13.98;;
68310;SDS011;55157;51.036;17.058;2023-03-31T06:10:43;20.70;;;11.43;;
68310;SDS011;55157;51.036;17.058;2023-03-31T06:13:10;19.25;;;10.02;;
68310;SDS011;55157;51.036;17.058;2023-03-31T06:15:35;22.10;;;11.02;;
68310;SDS011;55157;51.036;17.058;2023-03-31T06:18:00;20.65;;;10.88;;
68310;SDS011;55157;51.036;17.058;2023-03-31T06:20:25;18.63;;;10.93;;
68310;SDS011;55157;51.036;17.058;2023-03-31T06:22:51;28.75;;;12.50;;
68310;SDS011;55157;51.036;17.058;2023-03-31T06:25:16;27.08;;;13.23;;
68310;SDS011;55157;51.036;17.058;2023-03-31T06:27:41;23.77;;;12.18;;
68310;SDS011;55157;51.036;17.058;2023-03-31T06:30:08;28.98;;;12.32;;
68310;SDS011;55157;51.036;17.058;2023-03-31T06:32:34;19.38;;;10.05;;
68310;SDS011;55157;51.036;17.058;2023-03-31T06:34:59;17.95;;;9.68;;
68310;SDS011;55157;51.036;17.058;2023-03-31T06:37:24;14.13;;;7.93;;
68310;SDS011;55157;51.036;17.058;2023-03-31T06:39:49;18.83;;;9.07;;
68310;SDS011;55157;51.036;17.058;2023-03-31T06:42:15;17.25;;;8.68;;
68310;SDS011;55157;51.036;17.058;2023-03-31T06:44:40;19.20;;;10.43;;
68310;SDS011;55157;51.036;17.058;2023-03-31T06:47:07;12.57;;;7.22;;
68310;SDS011;55157;51.036;17.058;2023-03-31T06:49:32;13.50;;;8.27;;
68310;SDS011;55157;51.036;17.058;2023-03-31T06:51:57;15.80;;;9.05;;
68310;SDS011;55157;51.036;17.058;2023-03-31T06:54:22;13.18;;;7.95;;
68310;SDS011;55157;51.036;17.058;2023-03-31T06:56:48;20.42;;;10.38;;
68310;SDS011;55157;51.036;17.058;2023-03-31T06:59:13;20.67;;;10.55;;
68310;SDS011;55157;51.036;17.058;2023-03-31T07:01:38;17.00;;;10.40;;
68310;SDS011;55157;51.036;17.058;2023-03-31T07:04:05;15.18;;;8.15;;
68310;SDS011;55157;51.036;17.058;2023-03-31T07:06:30;11.70;;;7.72;;
68310;SDS011;55157;51.036;17.058;2023-03-31T07:08:55;13.18;;;8.45;;
68310;SDS011;55157;51.036;17.058;2023-03-31T07:11:21;14.90;;;8.45;;
68310;SDS011;55157;51.036;17.058;2023-03-31T07:13:46;16.92;;;10.73;;
68310;SDS011;55157;51.036;17.058;2023-03-31T07:16:11;16.20;;;10.15;;
68310;SDS011;55157;51.036;17.058;2023-03-31T07:18:36;26.98;;;13.60;;
68310;SDS011;55157;51.036;17.058;2023-03-31T07:21:04;13.52;;;8.70;;
68310;SDS011;55157;51.036;17.058;2023-03-31T07:23:29;31.25;;;15.82;;
68310;SDS011;55157;51.036;17.058;2023-03-31T07:25:54;13.65;;;8.82;;
68310;SDS011;55157;51.036;17.058;2023-03-31T07:28:20;29.92;;;15.15;;
68310;SDS011;55157;51.036;17.058;2023-03-31T07:30:45;25.83;;;13.82;;
68310;SDS011;55157;51.036;17.058;2023-03-31T07:33:10;23.33;;;12.57;;
68310;SDS011;55157;51.036;17.058;2023-03-31T07:35:36;27.95;;;13.73;;
68310;SDS011;55157;51.036;17.058;2023-03-31T07:38:03;12.82;;;9.48;;
68310;SDS011;55157;51.036;17.058;2023-03-31T07:40:28;18.20;;;10.88;;
68310;SDS011;55157;51.036;17.058;2023-03-31T07:42:53;17.65;;;11.25;;
68310;SDS011;55157;51.036;17.058;2023-03-31T07:45:19;27.42;;;14.52;;
68310;SDS011;55157;51.036;17.058;2023-03-31T07:47:45;14.25;;;9.82;;
68310;SDS011;55157;51.036;17.058;2023-03-31T07:50:11;12.80;;;9.93;;
68310;SDS011;55157;51.036;17.058;2023-03-31T07:52:36;18.00;;;10.90;;
68310;SDS011;55157;51.036;17.058;2023-03-31T07:55:03;14.77;;;9.43;;
68310;SDS011;55157;51.036;17.058;2023-03-31T07:57:29;17.40;;;9.77;;
68310;SDS011;55157;51.036;17.058;2023-03-31T07:59:54;18.92;;;10.70;;
68310;SDS011;55157;51.036;17.058;2023-03-31T08:02:19;16.65;;;10.25;;
68310;SDS011;55157;51.036;17.058;2023-03-31T08:04:45;16.42;;;9.90;;
68310;SDS011;55157;51.036;17.058;2023-03-31T08:07:11;13.60;;;9.82;;
68310;SDS011;55157;51.036;17.058;2023-03-31T08:09:36;16.70;;;9.48;;
68310;SDS011;55157;51.036;17.058;2023-03-31T08:12:03;18.60;;;7.78;;
68310;SDS011;55157;51.036;17.058;2023-03-31T08:14:28;11.80;;;6.82;;
68310;SDS011;55157;51.036;17.058;2023-03-31T08:16:54;12.98;;;7.55;;
68310;SDS011;55157;51.036;17.058;2023-03-31T08:19:19;12.55;;;7.15;;
68310;SDS011;55157;51.036;17.058;2023-03-31T08:21:44;17.67;;;7.72;;
68310;SDS011;55157;51.036;17.058;2023-03-31T08:24:09;17.92;;;10.73;;
68310;SDS011;55157;51.036;17.058;2023-03-31T08:26:35;20.30;;;9.63;;
68310;SDS011;55157;51.036;17.058;2023-03-31T08:29:01;10.70;;;4.93;;
68310;SDS011;55157;51.036;17.058;2023-03-31T08:31:26;8.65;;;4.82;;
68310;SDS011;55157;51.036;17.058;2023-03-31T08:33:52;12.77;;;4.95;;
68310;SDS011;55157;51.036;17.058;2023-03-31T08:36:17;12.13;;;5.07;;
68310;SDS011;55157;51.036;17.058;2023-03-31T08:38:42;12.23;;;5.82;;
68310;SDS011;55157;51.036;17.058;2023-03-31T08:41:11;15.07;;;5.90;;
68310;SDS011;55157;51.036;17.058;2023-03-31T08:43:40;14.20;;;7.38;;
68310;SDS011;55157;51.036;17.058;2023-03-31T08:46:09;11.75;;;4.30;;
68310;SDS011;55157;51.036;17.058;2023-03-31T08:48:36;8.82;;;4.75;;
68310;SDS011;55157;51.036;17.058;2023-03-31T08:51:02;11.90;;;5.18;;
68310;SDS011;55157;51.036;17.058;2023-03-31T08:53:30;12.52;;;5.25;;
68310;SDS011;55157;51.036;17.058;2023-03-31T08:55:57;8.68;;;3.88;;
68310;SDS011;55157;51.036;17.058;2023-03-31T08:58:27;8.73;;;3.58;;
68310;SDS011;55157;51.036;17.058;2023-03-31T09:00:54;7.95;;;3.45;;
68310;SDS011;55157;51.036;17.058;2023-03-31T09:03:23;14.05;;;5.03;;
68310;SDS011;55157;51.036;17.058;2023-03-31T09:05:53;8.63;;;4.40;;
68310;SDS011;55157;51.036;17.058;2023-03-31T09:08:26;15.52;;;5.72;;
68310;SDS011;55157;51.036;17.058;2023-03-31T09:10:55;13.82;;;4.95;;
68310;SDS011;55157;51.036;17.058;2023-03-31T09:13:27;14.23;;;5.90;;
68310;SDS011;55157;51.036;17.058;2023-03-31T09:15:55;10.93;;;4.93;;
68310;SDS011;55157;51.036;17.058;2023-03-31T09:18:26;10.38;;;3.33;;
68310;SDS011;55157;51.036;17.058;2023-03-31T09:20:52;17.63;;;5.85;;
68310;SDS011;55157;51.036;17.058;2023-03-31T09:23:23;6.35;;;3.20;;
68310;SDS011;55157;51.036;17.058;2023-03-31T09:25:49;6.45;;;2.63;;
68310;SDS011;55157;51.036;17.058;2023-03-31T09:28:17;9.88;;;3.55;;
68310;SDS011;55157;51.036;17.058;2023-03-31T09:30:43;10.98;;;3.47;;
68310;SDS011;55157;51.036;17.058;2023-03-31T09:33:11;12.98;;;5.88;;
68310;SDS011;55157;51.036;17.058;2023-03-31T09:35:40;31.42;;;10.88;;
68310;SDS011;55157;51.036;17.058;2023-03-31T09:38:05;16.13;;;5.00;;
68310;SDS011;55157;51.036;17.058;2023-03-31T09:40:30;10.70;;;4.07;;
68310;SDS011;55157;51.036;17.058;2023-03-31T09:42:56;5.82;;;3.13;;
68310;SDS011;55157;51.036;17.058;2023-03-31T09:45:22;13.52;;;3.67;;
68310;SDS011;55157;51.036;17.058;2023-03-31T09:47:49;8.93;;;4.40;;
68310;SDS011;55157;51.036;17.058;2023-03-31T09:50:15;15.80;;;4.57;;
68310;SDS011;55157;51.036;17.058;2023-03-31T09:52:43;14.77;;;4.75;;
68310;SDS011;55157;51.036;17.058;2023-03-31T09:55:14;12.93;;;5.80;;
68310;SDS011;55157;51.036;17.058;2023-03-31T09:57:42;9.98;;;4.85;;
68310;SDS011;55157;51.036;17.058;2023-03-31T10:00:13;14.98;;;5.50;;
68310;SDS011;55157;51.036;17.058;2023-03-31T10:02:39;14.75;;;4.88;;
68310;SDS011;55157;51.036;17.058;2023-03-31T10:05:07;15.30;;;4.40;;
68310;SDS011;55157;51.036;17.058;2023-03-31T10:07:43;13.00;;;4.15;;
68310;SDS011;55157;51.036;17.058;2023-03-31T10:10:09;11.27;;;4.20;;
68310;SDS011;55157;51.036;17.058;2023-03-31T10:12:35;8.65;;;4.22;;
68310;SDS011;55157;51.036;17.058;2023-03-31T10:17:40;33.63;;;11.48;;
68310;SDS011;55157;51.036;17.058;2023-03-31T10:20:16;22.08;;;8.25;;
68310;SDS011;55157;51.036;17.058;2023-03-31T10:22:44;12.65;;;3.65;;
68310;SDS011;55157;51.036;17.058;2023-03-31T10:25:13;15.90;;;4.82;;
68310;SDS011;55157;51.036;17.058;2023-03-31T10:27:39;16.30;;;5.10;;
68310;SDS011;55157;51.036;17.058;2023-03-31T10:30:07;10.75;;;3.90;;
68310;SDS011;55157;51.036;17.058;2023-03-31T10:32:33;13.93;;;6.03;;
68310;SDS011;55157;51.036;17.058;2023-03-31T10:35:03;9.10;;;3.63;;
68310;SDS011;55157;51.036;17.058;2023-03-31T10:37:29;13.35;;;5.47;;
68310;SDS011;55157;51.036;17.058;2023-03-31T10:39:57;12.80;;;3.97;;
68310;SDS011;55157;51.036;17.058;2023-03-31T10:42:22;13.35;;;3.70;;
68310;SDS011;55157;51.036;17.058;2023-03-31T10:44:48;15.52;;;6.18;;
68310;SDS011;55157;51.036;17.058;2023-03-31T10:47:17;17.50;;;6.13;;
68310;SDS011;55157;51.036;17.058;2023-03-31T10:49:43;28.27;;;7.30;;
68310;SDS011;55157;51.036;17.058;2023-03-31T10:52:18;12.85;;;4.60;;
68310;SDS011;55157;51.036;17.058;2023-03-31T10:54:48;19.55;;;9.85;;
68310;SDS011;55157;51.036;17.058;2023-03-31T10:57:15;22.30;;;9.38;;
68310;SDS011;55157;51.036;17.058;2023-03-31T10:59:45;9.63;;;3.63;;
68310;SDS011;55157;51.036;17.058;2023-03-31T11:05:10;11.82;;;3.95;;
68310;SDS011;55157;51.036;17.058;2023-03-31T11:07:40;9.88;;;2.70;;
68310;SDS011;55157;51.036;17.058;2023-03-31T11:12:54;15.82;;;4.75;;
68310;SDS011;55157;51.036;17.058;2023-03-31T11:15:21;20.45;;;7.55;;
68310;SDS011;55157;51.036;17.058;2023-03-31T11:17:52;17.88;;;4.82;;
68310;SDS011;55157;51.036;17.058;2023-03-31T11:20:23;10.82;;;4.50;;
68310;SDS011;55157;51.036;17.058;2023-03-31T11:22:53;9.75;;;3.20;;
68310;SDS011;55157;51.036;17.058;2023-03-31T11:25:29;97.18;;;10.20;;
68310;SDS011;55157;51.036;17.058;2023-03-31T11:30:47;12.27;;;3.05;;
68310;SDS011;55157;51.036;17.058;2023-03-31T11:33:20;10.65;;;3.40;;
68310;SDS011;55157;51.036;17.058;2023-03-31T11:35:53;9.77;;;3.65;;
68310;SDS011;55157;51.036;17.058;2023-03-31T11:38:27;10.88;;;2.63;;
68310;SDS011;55157;51.036;17.058;2023-03-31T11:40:58;9.18;;;3.83;;
68310;SDS011;55157;51.036;17.058;2023-03-31T11:43:25;14.85;;;4.18;;
68310;SDS011;55157;51.036;17.058;2023-03-31T11:45:54;6.30;;;2.60;;
68310;SDS011;55157;51.036;17.058;2023-03-31T11:48:24;14.80;;;2.90;;
68310;SDS011;55157;51.036;17.058;2023-03-31T11:50:51;9.50;;;2.55;;
68310;SDS011;55157;51.036;17.058;2023-03-31T11:53:18;11.52;;;4.45;;
68310;SDS011;55157;51.036;17.058;2023-03-31T11:55:44;18.45;;;3.92;;
68310;SDS011;55157;51.036;17.058;2023-03-31T11:58:11;9.02;;;2.83;;
68310;SDS011;55157;51.036;17.058;2023-03-31T12:00:39;7.13;;;2.38;;
68310;SDS011;55157;51.036;17.058;2023-03-31T12:03:08;11.55;;;3.50;;
68310;SDS011;55157;51.036;17.058;2023-03-31T12:05:35;8.68;;;2.22;;
68310;SDS011;55157;51.036;17.058;2023-03-31T12:08:03;11.30;;;4.55;;
68310;SDS011;55157;51.036;17.058;2023-03-31T12:10:31;11.27;;;3.00;;
68310;SDS011;55157;51.036;17.058;2023-03-31T12:12:58;11.07;;;2.38;;
68310;SDS011;55157;51.036;17.058;2023-03-31T12:15:26;14.02;;;2.80;;
68310;SDS011;55157;51.036;17.058;2023-03-31T12:17:55;9.52;;;2.28;;
68310;SDS011;55157;51.036;17.058;2023-03-31T12:20:25;10.35;;;2.67;;
68310;SDS011;55157;51.036;17.058;2023-03-31T12:22:53;10.85;;;4.28;;
68310;SDS011;55157;51.036;17.058;2023-03-31T12:25:19;10.38;;;3.03;;
68310;SDS011;55157;51.036;17.058;2023-03-31T12:27:45;12.45;;;3.63;;
68310;SDS011;55157;51.036;17.058;2023-03-31T12:30:12;18.08;;;2.65;;
68310;SDS011;55157;51.036;17.058;2023-03-31T12:32:39;12.88;;;2.63;;
68310;SDS011;55157;51.036;17.058;2023-03-31T12:35:06;9.40;;;2.92;;
68310;SDS011;55157;51.036;17.058;2023-03-31T12:37:54;8.68;;;2.90;;
68310;SDS011;55157;51.036;17.058;2023-03-31T12:40:26;11.90;;;2.80;;
68310;SDS011;55157;51.036;17.058;2023-03-31T12:43:06;9.05;;;2.53;;
68310;SDS011;55157;51.036;17.058;2023-03-31T12:45:34;9.65;;;2.38;;
68310;SDS011;55157;51.036;17.058;2023-03-31T12:48:04;9.88;;;3.60;;
68310;SDS011;55157;51.036;17.058;2023-03-31T12:50:39;8.57;;;2.85;;
68310;SDS011;55157;51.036;17.058;2023-03-31T12:55:33;14.48;;;3.70;;
68310;SDS011;55157;51.036;17.058;2023-03-31T13:00:53;12.40;;;4.35;;
68310;SDS011;55157;51.036;17.058;2023-03-31T13:03:42;10.48;;;3.88;;
68310;SDS011;55157;51.036;17.058;2023-03-31T13:06:08;13.95;;;5.30;;
68310;SDS011;55157;51.036;17.058;2023-03-31T13:08:53;12.63;;;6.38;;
68310;SDS011;55157;51.036;17.058;2023-03-31T13:11:20;13.02;;;4.07;;
68310;SDS011;55157;51.036;17.058;2023-03-31T13:13:51;14.48;;;3.67;;
68310;SDS011;55157;51.036;17.058;2023-03-31T13:16:20;20.77;;;6.88;;
68310;SDS011;55157;51.036;17.058;2023-03-31T13:18:49;12.63;;;4.78;;
68310;SDS011;55157;51.036;17.058;2023-03-31T13:21:15;15.20;;;4.53;;
68310;SDS011;55157;51.036;17.058;2023-03-31T13:23:42;10.38;;;4.57;;
68310;SDS011;55157;51.036;17.058;2023-03-31T13:26:23;13.43;;;4.63;;
68310;SDS011;55157;51.036;17.058;2023-03-31T13:29:17;14.35;;;5.40;;
68310;SDS011;55157;51.036;17.058;2023-03-31T13:34:26;20.83;;;9.27;;
68310;SDS011;55157;51.036;17.058;2023-03-31T13:36:57;30.40;;;17.85;;
68310;SDS011;55157;51.036;17.058;2023-03-31T13:39:33;30.90;;;17.42;;
68310;SDS011;55157;51.036;17.058;2023-03-31T13:42:07;16.48;;;8.52;;
68310;SDS011;55157;51.036;17.058;2023-03-31T13:44:42;34.67;;;12.13;;
68310;SDS011;55157;51.036;17.058;2023-03-31T13:47:17;67.35;;;31.10;;
68310;SDS011;55157;51.036;17.058;2023-03-31T13:52:08;36.67;;;17.63;;
68310;SDS011;55157;51.036;17.058;2023-03-31T13:54:43;37.75;;;21.17;;
68310;SDS011;55157;51.036;17.058;2023-03-31T13:57:21;27.20;;;13.05;;
68310;SDS011;55157;51.036;17.058;2023-03-31T13:59:57;26.08;;;12.48;;
68310;SDS011;55157;51.036;17.058;2023-03-31T14:02:31;45.50;;;19.98;;
68310;SDS011;55157;51.036;17.058;2023-03-31T14:07:42;18.17;;;10.60;;
68310;SDS011;55157;51.036;17.058;2023-03-31T14:10:20;16.17;;;9.95;;
68310;SDS011;55157;51.036;17.058;2023-03-31T14:12:45;20.20;;;9.80;;
68310;SDS011;55157;51.036;17.058;2023-03-31T14:15:16;20.00;;;11.30;;
68310;SDS011;55157;51.036;17.058;2023-03-31T14:17:42;25.50;;;11.05;;
68310;SDS011;55157;51.036;17.058;2023-03-31T14:20:12;32.63;;;14.15;;
68310;SDS011;55157;51.036;17.058;2023-03-31T14:22:45;25.45;;;16.75;;
68310;SDS011;55157;51.036;17.058;2023-03-31T14:25:12;20.52;;;9.43;;
68310;SDS011;55157;51.036;17.058;2023-03-31T14:27:43;16.65;;;8.55;;
68310;SDS011;55157;51.036;17.058;2023-03-31T14:30:15;16.88;;;7.20;;
68310;SDS011;55157;51.036;17.058;2023-03-31T14:32:44;14.98;;;9.27;;
68310;SDS011;55157;51.036;17.058;2023-03-31T14:35:17;17.92;;;8.55;;
68310;SDS011;55157;51.036;17.058;2023-03-31T14:37:46;30.58;;;8.57;;
68310;SDS011;55157;51.036;17.058;2023-03-31T14:40:12;20.77;;;9.35;;
68310;SDS011;55157;51.036;17.058;2023-03-31T14:42:38;17.48;;;9.32;;
68310;SDS011;55157;51.036;17.058;2023-03-31T14:45:06;22.02;;;9.52;;
68310;SDS011;55157;51.036;17.058;2023-03-31T14:47:40;25.20;;;9.77;;
68310;SDS011;55157;51.036;17.058;2023-03-31T14:50:10;24.23;;;15.88;;
68310;SDS011;55157;51.036;17.058;2023-03-31T14:52:36;31.30;;;18.27;;
68310;SDS011;55157;51.036;17.058;2023-03-31T14:55:02;30.90;;;16.85;;
68310;SDS011;55157;51.036;17.058;2023-03-31T14:57:28;19.30;;;11.63;;